createdAt,value
2022-07-26T00:02:18.254Z,7.75
2022-07-26T00:04:48.023Z,5.93
2022-07-26T00:07:17.628Z,5.95
2022-07-26T00:09:48.494Z,5.38
2022-07-26T00:12:18.530Z,3.70
2022-07-26T00:14:47.911Z,4.32
2022-07-26T00:17:17.270Z,6.32
2022-07-26T00:19:46.665Z,6.75
2022-07-26T00:22:28.579Z,2.60
2022-07-26T00:24:58.603Z,5.95
2022-07-26T00:27:28.016Z,5.07
2022-07-26T00:29:57.447Z,6.38
2022-07-26T00:32:26.762Z,7.93
2022-07-26T00:34:56.113Z,6.50
2022-07-26T00:37:25.653Z,6.00
2022-07-26T00:39:55.011Z,4.38
2022-07-26T00:42:24.401Z,8.77
2022-07-26T00:44:53.934Z,7.75
2022-07-26T00:47:23.419Z,4.97
2022-07-26T00:49:53.260Z,3.72
2022-07-26T00:52:22.600Z,4.03
2022-07-26T00:54:54.718Z,5.38
2022-07-26T00:57:25.780Z,4.53
2022-07-26T00:59:55.185Z,4.40
2022-07-26T01:02:24.601Z,7.72
2022-07-26T01:04:53.972Z,9.68
2022-07-26T01:07:25.232Z,6.38
2022-07-26T01:09:54.688Z,7.60
2022-07-26T01:12:24.023Z,6.07
2022-07-26T01:14:53.355Z,2.30
2022-07-26T01:17:22.833Z,8.32
2022-07-26T01:19:52.206Z,5.25
2022-07-26T01:22:21.608Z,6.40
2022-07-26T01:24:50.938Z,5.00
2022-07-26T01:27:20.671Z,7.65
2022-07-26T01:29:51.815Z,4.43
2022-07-26T01:32:22.255Z,8.68
2022-07-26T01:34:51.600Z,5.88
2022-07-26T01:37:21.056Z,5.00
2022-07-26T01:39:50.445Z,5.47
2022-07-26T01:42:19.800Z,10.27
2022-07-26T01:44:49.184Z,4.57
2022-07-26T01:47:18.634Z,4.07
2022-07-26T01:49:47.960Z,4.88
2022-07-26T01:52:17.277Z,5.93
2022-07-26T01:54:46.649Z,8.20
2022-07-26T01:57:16.038Z,4.72
2022-07-26T01:59:45.331Z,4.05
2022-07-26T02:02:14.809Z,8.25
2022-07-26T02:04:59.319Z,5.72
2022-07-26T02:07:30.724Z,12.50
2022-07-26T02:10:02.957Z,9.52
2022-07-26T02:12:32.855Z,7.72
2022-07-26T02:15:02.320Z,8.50
2022-07-26T02:17:31.680Z,7.78
2022-07-26T02:20:01.050Z,4.00
2022-07-26T02:22:30.459Z,10.32
2022-07-26T02:25:04.818Z,4.47
2022-07-26T02:27:34.909Z,11.43
2022-07-26T02:30:04.667Z,5.32
2022-07-26T02:32:34.085Z,6.63
2022-07-26T02:35:03.412Z,6.43
2022-07-26T02:37:32.696Z,9.23
2022-07-26T02:40:14.249Z,6.53
2022-07-26T02:42:46.279Z,5.47
2022-07-26T02:45:15.819Z,4.22
2022-07-26T02:47:52.544Z,7.75
2022-07-26T02:50:24.216Z,8.75
2022-07-26T02:52:56.400Z,10.43
2022-07-26T02:57:56.673Z,5.22
2022-07-26T03:00:28.965Z,6.45
2022-07-26T03:05:27.883Z,7.25
2022-07-26T03:07:57.153Z,5.50
2022-07-26T03:10:26.538Z,10.02
2022-07-26T03:12:55.863Z,4.40
2022-07-26T03:15:25.424Z,10.45
2022-07-26T03:17:55.350Z,10.25
2022-07-26T03:20:26.801Z,11.30
2022-07-26T03:22:56.200Z,6.82
2022-07-26T03:25:25.742Z,10.38
2022-07-26T03:27:58.750Z,10.15
2022-07-26T03:30:28.979Z,6.63
2022-07-26T03:32:58.394Z,8.13
2022-07-26T03:35:28.170Z,5.40
2022-07-26T03:37:57.469Z,6.22
2022-07-26T03:40:26.878Z,9.52
2022-07-26T03:42:56.182Z,7.53
2022-07-26T03:45:25.537Z,7.75
2022-07-26T03:47:54.837Z,5.05
2022-07-26T03:50:24.143Z,7.32
2022-07-26T03:52:53.508Z,5.03
2022-07-26T03:55:37.940Z,5.90
2022-07-26T03:58:07.261Z,7.60
2022-07-26T04:00:36.658Z,6.55
2022-07-26T04:03:05.989Z,10.75
2022-07-26T04:05:36.194Z,7.68
2022-07-26T04:08:05.801Z,8.57
2022-07-26T04:10:35.333Z,4.70
2022-07-26T04:13:04.686Z,10.38
2022-07-26T04:15:34.007Z,9.45
2022-07-26T04:18:03.389Z,9.85
2022-07-26T04:20:32.792Z,7.88
2022-07-26T04:23:02.136Z,11.05
2022-07-26T04:25:38.538Z,13.15
2022-07-26T04:28:10.758Z,12.98
2022-07-26T04:30:42.717Z,7.38
2022-07-26T04:33:12.483Z,10.15
2022-07-26T04:35:42.023Z,11.25
2022-07-26T04:38:14.379Z,9.75
2022-07-26T04:40:43.776Z,12.38
2022-07-26T04:43:15.641Z,11.77
2022-07-26T04:48:16.125Z,13.55
2022-07-26T04:50:46.240Z,13.80
2022-07-26T04:53:16.103Z,14.45
2022-07-26T04:55:45.605Z,10.55
2022-07-26T04:58:15.150Z,8.10
2022-07-26T05:01:08.625Z,12.15
2022-07-26T05:03:35.053Z,9.05
2022-07-26T05:06:04.789Z,14.38
2022-07-26T05:08:34.205Z,9.43
2022-07-26T05:11:04.266Z,14.07
2022-07-26T05:13:33.691Z,15.65
2022-07-26T05:16:03.103Z,11.15
2022-07-26T05:18:45.863Z,11.88
2022-07-26T05:21:19.617Z,11.25
2022-07-26T05:23:49.033Z,12.40
2022-07-26T05:26:18.447Z,11.88
2022-07-26T05:28:47.782Z,14.02
2022-07-26T05:31:17.245Z,10.10
2022-07-26T05:33:46.561Z,12.98
2022-07-26T05:36:15.991Z,9.65
2022-07-26T05:38:45.421Z,8.38
2022-07-26T05:41:14.821Z,11.55
2022-07-26T05:43:47.018Z,10.93
2022-07-26T05:48:45.936Z,13.57
2022-07-26T05:51:30.304Z,17.58
2022-07-26T05:53:59.979Z,10.02
2022-07-26T05:56:29.365Z,11.18
2022-07-26T05:58:58.672Z,8.57
2022-07-26T06:01:29.660Z,7.93
2022-07-26T06:04:02.212Z,12.65
2022-07-26T06:06:31.610Z,9.80
2022-07-26T06:09:00.972Z,11.88
2022-07-26T06:11:30.316Z,26.65
2022-07-26T06:13:59.704Z,15.65
2022-07-26T06:16:29.031Z,11.80
2022-07-26T06:18:58.421Z,11.50
2022-07-26T06:21:27.967Z,14.00
2022-07-26T06:23:57.558Z,11.80
2022-07-26T06:26:27.108Z,9.75
2022-07-26T06:28:57.190Z,11.15
2022-07-26T06:31:26.950Z,9.25
2022-07-26T06:33:56.788Z,7.80
2022-07-26T06:36:30.509Z,9.48
2022-07-26T06:39:02.015Z,11.23
2022-07-26T06:41:32.240Z,11.70
2022-07-26T06:44:31.957Z,9.20
2022-07-26T07:05:43.342Z,9.20
2022-07-26T07:10:25.190Z,12.20
2022-07-26T07:13:01.463Z,8.38
2022-07-26T07:25:30.340Z,9.38
2022-07-26T07:28:02.263Z,9.15
2022-07-26T07:30:31.869Z,11.13
2022-07-26T07:33:01.202Z,9.43
2022-07-26T07:35:33.002Z,8.32
2022-07-26T07:38:02.466Z,6.80
2022-07-26T07:40:32.192Z,9.60
2022-07-26T07:43:01.761Z,9.77
2022-07-26T07:45:31.194Z,8.30
2022-07-26T07:48:00.534Z,9.73
2022-07-26T07:50:30.091Z,12.23
2022-07-26T07:52:59.455Z,14.85
2022-07-26T07:55:41.089Z,9.68
2022-07-26T07:58:13.313Z,8.32
2022-07-26T08:00:44.513Z,7.93
2022-07-26T08:03:18.046Z,8.05
2022-07-26T08:05:50.648Z,11.57
2022-07-26T08:10:53.363Z,10.30
2022-07-26T08:13:24.903Z,13.00
2022-07-26T08:15:56.028Z,12.95
2022-07-26T08:18:26.541Z,14.77
2022-07-26T08:20:57.120Z,10.88
2022-07-26T08:23:26.523Z,8.75
2022-07-26T08:26:01.951Z,8.02
2022-07-26T08:28:58.306Z,10.05
2022-07-26T08:31:23.647Z,11.90
2022-07-26T08:33:53.130Z,8.55
2022-07-26T08:36:22.598Z,9.95
2022-07-26T08:38:52.556Z,8.90
2022-07-26T08:41:23.234Z,8.90
2022-07-26T08:43:53.818Z,11.45
2022-07-26T08:46:27.470Z,7.30
2022-07-26T08:49:00.738Z,3.72
2022-07-26T08:51:30.420Z,3.03
2022-07-26T08:54:05.884Z,2.22
2022-07-26T08:56:37.890Z,1.30
2022-07-26T08:59:21.841Z,3.90
2022-07-26T09:02:04.360Z,2.95
2022-07-26T09:04:44.751Z,2.55
2022-07-26T09:07:19.073Z,5.90
2022-07-26T09:09:57.674Z,3.30
2022-07-26T09:12:29.173Z,2.17
2022-07-26T09:14:59.821Z,1.73
2022-07-26T09:17:52.756Z,2.60
2022-07-26T09:20:28.521Z,3.50
2022-07-26T09:23:09.897Z,5.97
2022-07-26T09:25:42.407Z,2.58
2022-07-26T09:28:29.950Z,2.63
2022-07-26T09:31:04.601Z,2.83
2022-07-26T09:33:54.429Z,3.55
2022-07-26T09:36:24.245Z,3.92
2022-07-26T09:38:56.082Z,0.70
2022-07-26T09:41:38.402Z,2.30
2022-07-26T09:44:09.876Z,3.05
2022-07-26T09:46:56.499Z,0.88
2022-07-26T09:49:39.980Z,0.70
2022-07-26T09:52:24.465Z,1.58
2022-07-26T09:54:53.759Z,2.63
2022-07-26T09:57:24.289Z,5.00
2022-07-26T09:59:53.901Z,1.05
2022-07-26T10:02:23.403Z,2.22
2022-07-26T10:04:52.887Z,0.80
2022-07-26T10:07:22.457Z,1.20
2022-07-26T10:09:58.857Z,0.52
2022-07-26T10:12:31.446Z,2.33
2022-07-26T10:15:00.880Z,4.05
2022-07-26T10:17:35.107Z,1.13
2022-07-26T10:20:17.471Z,1.73
2022-07-26T10:22:50.963Z,0.98
2022-07-26T10:25:20.382Z,0.70
2022-07-26T10:27:55.330Z,1.13
2022-07-26T10:30:35.345Z,3.25
2022-07-26T10:33:09.448Z,1.98
2022-07-26T10:35:40.275Z,1.40
2022-07-26T10:38:17.136Z,3.40
2022-07-26T10:41:00.127Z,1.65
2022-07-26T10:43:41.194Z,1.95
2022-07-26T10:46:23.462Z,0.75
2022-07-26T10:49:04.713Z,1.55
2022-07-26T10:51:38.181Z,1.27
2022-07-26T10:54:13.830Z,2.90
2022-07-26T10:56:50.557Z,1.02
2022-07-26T10:59:54.699Z,1.02
2022-07-26T11:05:29.204Z,3.20
2022-07-26T11:08:11.372Z,2.10
2022-07-26T11:10:47.318Z,3.80
2022-07-26T11:13:39.372Z,3.38
2022-07-26T11:16:12.192Z,2.63
2022-07-26T11:18:42.895Z,4.43
2022-07-26T11:21:32.576Z,2.65
2022-07-26T11:24:19.988Z,2.33
2022-07-26T11:27:16.314Z,2.17
2022-07-26T11:29:50.191Z,2.80
2022-07-26T11:32:26.461Z,3.47
2022-07-26T11:35:08.169Z,2.10
2022-07-26T11:37:38.222Z,0.90
2022-07-26T11:40:08.409Z,1.88
2022-07-26T11:42:44.401Z,3.17
2022-07-26T11:45:14.401Z,0.95
2022-07-26T11:47:44.134Z,1.58
2022-07-26T11:50:21.905Z,3.53
2022-07-26T11:52:52.012Z,0.95
2022-07-26T11:55:33.827Z,3.97
2022-07-26T11:58:09.451Z,1.45
2022-07-26T12:00:38.875Z,1.45
2022-07-26T12:03:08.317Z,2.38
2022-07-26T12:05:38.046Z,1.67
2022-07-26T12:08:08.335Z,2.05
2022-07-26T12:10:37.711Z,3.50
2022-07-26T12:13:17.250Z,0.57
2022-07-26T12:15:56.353Z,1.65
2022-07-26T12:18:31.406Z,1.05
2022-07-26T12:21:11.492Z,0.93
2022-07-26T12:23:45.757Z,0.38
2022-07-26T12:26:28.827Z,2.72
2022-07-26T12:28:59.870Z,2.17
2022-07-26T12:31:35.369Z,0.45
2022-07-26T12:34:04.817Z,0.85
2022-07-26T12:36:36.282Z,2.88
2022-07-26T12:39:07.514Z,3.20
2022-07-26T12:41:43.212Z,1.88
2022-07-26T12:44:13.363Z,2.15
2022-07-26T12:46:44.918Z,0.30
2022-07-26T12:49:14.718Z,1.93
2022-07-26T12:51:46.239Z,5.22
2022-07-26T12:54:15.807Z,2.05
2022-07-26T12:56:46.551Z,2.40
2022-07-26T12:59:18.132Z,1.38
2022-07-26T13:01:47.864Z,3.47
2022-07-26T13:04:17.515Z,4.40
2022-07-26T13:06:46.963Z,3.22
2022-07-26T13:09:17.193Z,3.25
2022-07-26T13:11:46.803Z,2.35
2022-07-26T13:14:16.175Z,1.60
2022-07-26T13:16:45.572Z,2.63
2022-07-26T13:19:14.982Z,1.13
2022-07-26T13:21:52.398Z,2.60
2022-07-26T13:24:22.928Z,1.30
2022-07-26T13:26:52.973Z,3.50
2022-07-26T13:29:23.245Z,2.25
2022-07-26T13:31:53.911Z,2.00
2022-07-26T13:34:23.701Z,2.03
2022-07-26T13:36:53.643Z,2.05
2022-07-26T13:39:23.011Z,2.15
2022-07-26T13:41:52.474Z,0.70
2022-07-26T13:44:22.250Z,2.47
2022-07-26T13:46:51.741Z,2.72
2022-07-26T13:49:21.237Z,2.20
2022-07-26T13:52:00.512Z,3.03
2022-07-26T13:54:34.201Z,4.63
2022-07-26T13:57:07.857Z,3.80
2022-07-26T13:59:37.270Z,5.05
2022-07-26T14:02:07.178Z,4.68
2022-07-26T14:04:36.582Z,2.92
2022-07-26T14:07:06.004Z,2.70
2022-07-26T14:09:35.359Z,3.60
2022-07-26T14:12:04.694Z,3.03
2022-07-26T14:14:35.118Z,2.95
2022-07-26T14:17:04.610Z,2.38
2022-07-26T14:19:34.057Z,3.17
2022-07-26T14:22:03.355Z,3.75
2022-07-26T14:24:32.800Z,3.47
2022-07-26T14:27:02.806Z,4.15
2022-07-26T14:29:32.454Z,3.35
2022-07-26T14:32:01.971Z,0.93
2022-07-26T14:34:31.519Z,1.75
2022-07-26T14:37:01.231Z,3.22
2022-07-26T14:39:38.148Z,2.88
2022-07-26T14:42:07.975Z,2.28
2022-07-26T14:44:44.241Z,6.32
2022-07-26T14:47:16.247Z,2.65
2022-07-26T14:49:45.829Z,7.65
2022-07-26T14:52:15.611Z,4.63
2022-07-26T14:54:45.508Z,2.38
2022-07-26T14:57:14.983Z,3.22
2022-07-26T14:59:44.720Z,1.55
2022-07-26T15:02:15.581Z,4.78
2022-07-26T15:04:45.052Z,2.55
2022-07-26T15:07:14.735Z,2.45
2022-07-26T15:09:47.232Z,3.72
2022-07-26T15:12:16.940Z,1.40
2022-07-26T15:14:46.364Z,4.50
2022-07-26T15:17:16.219Z,4.43
2022-07-26T15:19:45.693Z,2.55
2022-07-26T15:22:15.180Z,4.75
2022-07-26T15:24:45.511Z,3.83
2022-07-26T15:27:15.241Z,2.83
2022-07-26T15:29:46.969Z,3.47
2022-07-26T15:32:16.638Z,3.75
2022-07-26T15:34:46.090Z,4.85
2022-07-26T15:37:15.442Z,2.65
2022-07-26T15:39:45.049Z,1.60
2022-07-26T15:42:17.761Z,3.15
2022-07-26T15:44:48.345Z,8.52
2022-07-26T15:47:51.268Z,4.90
2022-07-26T15:50:12.263Z,3.45
2022-07-26T15:52:44.543Z,2.15
2022-07-26T15:55:15.254Z,3.03
2022-07-26T15:57:45.997Z,5.38
2022-07-26T16:00:16.728Z,3.22
2022-07-26T16:02:46.179Z,4.15
2022-07-26T16:05:15.725Z,9.38
2022-07-26T16:07:47.892Z,6.85
2022-07-26T16:10:17.995Z,6.93
2022-07-26T16:12:47.359Z,4.35
2022-07-26T16:15:16.768Z,4.65
2022-07-26T16:17:46.123Z,7.90
2022-07-26T16:20:15.867Z,7.43
2022-07-26T16:22:45.293Z,7.15
2022-07-26T16:25:16.187Z,4.25
2022-07-26T16:27:46.051Z,4.38
2022-07-26T16:30:16.666Z,5.63
2022-07-26T16:32:46.133Z,5.47
2022-07-26T16:35:16.131Z,4.78
2022-07-26T16:37:45.483Z,5.43
2022-07-26T16:40:14.858Z,6.72
2022-07-26T16:42:46.996Z,3.55
2022-07-26T16:47:45.871Z,6.28
2022-07-26T16:50:27.390Z,4.68
2022-07-26T16:52:57.489Z,4.22
2022-07-26T16:55:26.858Z,4.28
2022-07-26T16:57:56.288Z,7.78
2022-07-26T17:00:25.721Z,4.05
2022-07-26T17:02:55.534Z,4.72
2022-07-26T17:05:24.926Z,10.05
2022-07-26T17:07:54.279Z,3.47
2022-07-26T17:10:23.626Z,8.13
2022-07-26T17:12:53.099Z,8.25
2022-07-26T17:15:22.611Z,7.75
2022-07-26T17:17:52.014Z,4.65
2022-07-26T17:20:21.472Z,3.95
2022-07-26T17:22:50.867Z,6.63
2022-07-26T17:25:20.491Z,2.72
2022-07-26T17:27:49.831Z,4.57
2022-07-26T17:30:19.630Z,3.95
2022-07-26T17:32:49.078Z,4.30
2022-07-26T17:35:19.025Z,9.73
2022-07-26T17:37:48.371Z,3.17
2022-07-26T17:40:18.496Z,9.40
2022-07-26T17:42:47.860Z,3.88
2022-07-26T17:45:17.371Z,7.50
2022-07-26T17:47:46.901Z,3.75
2022-07-26T17:53:05.717Z,1.92
2022-07-26T17:58:07.127Z,6.80
2022-07-26T18:00:36.895Z,4.93
2022-07-26T18:03:06.318Z,6.43
2022-07-26T18:05:39.616Z,3.58
2022-07-26T18:08:10.631Z,7.20
2022-07-26T18:10:39.953Z,4.65
2022-07-26T18:13:09.253Z,3.30
2022-07-26T18:15:38.858Z,6.65
2022-07-26T18:18:08.803Z,4.05
2022-07-26T18:20:38.152Z,2.85
2022-07-26T18:23:07.519Z,4.95
2022-07-26T18:25:37.112Z,5.63
2022-07-26T18:28:07.456Z,3.30
2022-07-26T18:30:37.064Z,6.30
2022-07-26T18:33:10.993Z,4.10
2022-07-26T18:35:41.251Z,5.15
2022-07-26T18:38:10.912Z,5.07
2022-07-26T18:40:40.566Z,4.28
2022-07-26T18:43:10.081Z,1.23
2022-07-26T18:45:40.219Z,2.42
2022-07-26T18:48:12.396Z,2.88
2022-07-26T18:50:44.051Z,4.18
2022-07-26T18:53:13.513Z,2.80
2022-07-26T18:55:42.861Z,1.15
2022-07-26T18:58:12.150Z,4.68
2022-07-26T19:00:42.851Z,6.65
2022-07-26T19:03:12.150Z,4.35
2022-07-26T19:05:41.746Z,3.95
2022-07-26T19:08:11.254Z,3.65
2022-07-26T19:10:40.689Z,1.88
2022-07-26T19:13:10.287Z,3.35
2022-07-26T19:15:39.755Z,5.18
2022-07-26T19:18:16.423Z,5.18
2022-07-26T19:20:47.044Z,5.10
2022-07-26T19:23:16.508Z,3.50
2022-07-26T19:25:47.304Z,3.55
2022-07-26T19:28:16.743Z,5.00
2022-07-26T19:30:46.267Z,2.85
2022-07-26T19:33:16.918Z,6.72
2022-07-26T19:35:46.224Z,3.85
2022-07-26T19:38:15.848Z,7.20
2022-07-26T19:40:47.219Z,2.05
2022-07-26T19:43:16.663Z,2.33
2022-07-26T19:45:45.972Z,2.97
2022-07-26T19:48:16.569Z,3.70
2022-07-26T19:50:45.928Z,4.82
2022-07-26T19:53:15.282Z,4.82
2022-07-26T19:55:44.608Z,1.67
2022-07-26T19:58:16.809Z,7.57
2022-07-26T20:00:46.118Z,4.88
2022-07-26T20:03:15.629Z,2.08
2022-07-26T20:05:46.200Z,2.08
2022-07-26T20:08:15.651Z,5.97
2022-07-26T20:10:44.994Z,3.80
2022-07-26T20:13:14.961Z,2.47
2022-07-26T20:15:47.392Z,3.42
2022-07-26T20:18:18.329Z,4.32
2022-07-26T20:20:47.875Z,3.72
2022-07-26T20:23:17.168Z,4.43
2022-07-26T20:25:46.459Z,2.75
2022-07-26T20:28:15.811Z,2.17
2022-07-26T20:30:48.306Z,3.80
2022-07-26T20:33:17.926Z,7.57
2022-07-26T20:35:52.922Z,4.30
2022-07-26T20:38:25.174Z,5.47
2022-07-26T20:40:54.888Z,3.28
2022-07-26T20:43:24.315Z,3.45
2022-07-26T20:45:57.146Z,2.72
2022-07-26T20:48:26.560Z,3.15
2022-07-26T20:50:55.968Z,4.43
2022-07-26T20:53:25.321Z,1.23
2022-07-26T20:55:55.368Z,8.05
2022-07-26T20:58:24.687Z,4.07
2022-07-26T21:00:54.087Z,5.38
2022-07-26T21:03:23.631Z,3.03
2022-07-26T21:05:53.003Z,5.30
2022-07-26T21:08:22.349Z,3.55
2022-07-26T21:10:51.809Z,2.40
2022-07-26T21:13:21.458Z,1.55
2022-07-26T21:15:53.359Z,3.50
2022-07-26T21:18:25.863Z,1.85
2022-07-26T21:20:55.275Z,2.03
2022-07-26T21:23:24.674Z,3.67
2022-07-26T21:25:58.083Z,4.65
2022-07-26T21:28:30.388Z,1.70
2022-07-26T21:30:59.933Z,6.03
2022-07-26T21:33:29.373Z,5.90
2022-07-26T21:35:58.894Z,5.20
2022-07-26T21:38:29.926Z,6.45
2022-07-26T21:40:59.221Z,3.10
2022-07-26T21:43:28.891Z,5.25
2022-07-26T21:45:58.419Z,5.05
2022-07-26T21:48:27.810Z,6.15
2022-07-26T21:50:57.135Z,1.38
2022-07-26T21:53:26.472Z,4.72
2022-07-26T21:55:55.812Z,5.88
2022-07-26T21:58:27.857Z,4.50
2022-07-26T22:01:06.527Z,3.28
2022-07-26T22:03:38.167Z,2.83
2022-07-26T22:06:08.691Z,5.97
2022-07-26T22:08:38.997Z,9.05
2022-07-26T22:11:08.664Z,5.47
2022-07-26T22:13:38.773Z,1.83
2022-07-26T22:16:09.450Z,4.20
2022-07-26T22:18:38.838Z,2.88
2022-07-26T22:21:08.373Z,4.43
2022-07-26T22:23:37.713Z,4.70
2022-07-26T22:26:08.108Z,1.65
2022-07-26T22:28:38.291Z,1.90
2022-07-26T22:31:07.588Z,5.50
2022-07-26T22:33:36.931Z,1.52
2022-07-26T22:36:06.606Z,2.72
2022-07-26T22:38:35.996Z,1.85
2022-07-26T22:41:05.337Z,4.03
2022-07-26T22:43:34.723Z,2.97
2022-07-26T22:46:04.180Z,2.30
2022-07-26T22:48:37.927Z,3.60
2022-07-26T22:51:07.837Z,4.47
2022-07-26T22:53:37.216Z,2.80
2022-07-26T22:56:06.697Z,2.42
2022-07-26T22:58:36.025Z,5.57
2022-07-26T23:01:05.385Z,1.75
2022-07-26T23:03:34.893Z,3.25
2022-07-26T23:06:17.534Z,2.58
2022-07-26T23:08:57.049Z,3.70
2022-07-26T23:11:26.430Z,3.53
2022-07-26T23:13:58.951Z,4.97
2022-07-26T23:16:29.059Z,3.70
2022-07-26T23:18:58.480Z,2.45
2022-07-26T23:21:27.782Z,4.60
2022-07-26T23:23:57.335Z,1.58
2022-07-26T23:26:26.801Z,1.60
2022-07-26T23:28:56.167Z,3.70
2022-07-26T23:31:25.505Z,4.00
2022-07-26T23:33:54.972Z,4.07
2022-07-26T23:36:28.677Z,3.25
2022-07-26T23:39:00.021Z,3.80
2022-07-26T23:41:30.837Z,4.00
2022-07-26T23:44:00.260Z,2.72
2022-07-26T23:46:29.712Z,4.00
2022-07-26T23:49:00.219Z,3.15
2022-07-26T23:51:30.071Z,2.25
2022-07-26T23:53:59.664Z,2.38
2022-07-26T23:56:28.961Z,1.00
2022-07-26T23:58:58.338Z,3.20
